This is the latest recevied weather packets stored in our database for station/object KI5NYZ. If no packets are shown the sender has not sent any weather packets the latest 10 day(s).
| Time | Temp. | Humidity | Pressure | Rain* | Wind** | Luminosity | Snow |
|---|---|---|---|---|---|---|---|
| 1777496146 | 20.56° C | 40% | 1014.7 hPa | 0 mm | - | 334 W/m² | - |
| 1777495520 | 20.56° C | 40% | 1014.6 hPa | 0 mm | - | 445 W/m² | - |
| 1777493141 | 21.11° C | 39% | 1015.1 hPa | 0 mm | - | 556 W/m² | - |
| 1777491320 | 21.11° C | 40% | 1015.7 hPa | 0 mm | - | 622 W/m² | - |
| 1777487741 | 20.56° C | 42% | 1016.3 hPa | 1.02 mm | - | 827 W/m² | - |
| 1777481119 | 17.22° C | 51% | 1017.6 hPa | 4.06 mm | - | 807 W/m² | - |
| 1777477520 | 15.56° C | 58% | 1017 hPa | 6.86 mm | - | 258 W/m² | - |
| 1777474542 | 14.44° C | 64% | 1017.8 hPa | 5.08 mm | - | 123 W/m² | - |
| 1777473921 | 13.89° C | 65% | 1017.8 hPa | 4.83 mm | - | 116 W/m² | - |
| 1777472122 | 12.22° C | 72% | 1017.5 hPa | 5.84 mm | - | 52 W/m² | - |
| 1777468524 | 12.22° C | 73% | 1017.1 hPa | 2.54 mm | - | 81 W/m² | - |
| 1777465521 | 12.22° C | 73% | 1016.6 hPa | 0 mm | - | 14 W/m² | - |
| 1777463722 | 12.22° C | 71% | 1016.2 hPa | 0.25 mm | - | 0 W/m² | - |
| 1777462521 | 12.78° C | 71% | 1016 hPa | 0.51 mm | - | 0 W/m² | - |
| 1777459519 | 13.89° C | 70% | 1015.2 hPa | 0.76 mm | - | 0 W/m² | - |
| 1777458919 | 13.89° C | 70% | 1014.9 hPa | 1.27 mm | - | 0 W/m² | - |
| 1777455920 | 15.56° C | 63% | 1014.4 hPa | 2.54 mm | - | 0 W/m² | - |
| 1777454120 | 16.67° C | 61% | 1014.5 hPa | 0 mm | - | 0 W/m² | - |
| 1777449922 | 17.78° C | 54% | 1014.5 hPa | 0 mm | - | 0 W/m² | - |
| 1777448719 | 18.33° C | 52% | 1014.6 hPa | 0 mm | - | 0 W/m² | - |
| 1777447519 | 18.89° C | 52% | 1014.5 hPa | 0 mm | - | 0 W/m² | - |
| 1777444540 | 20° C | 46% | 1014.7 hPa | 0.25 mm | - | 0 W/m² | - |
| 1777442120 | 21.11° C | 43% | 1014.7 hPa | 2.03 mm | - | 0 W/m² | - |
| 1777440921 | 21.67° C | 41% | 1014.6 hPa | 2.54 mm | - | 0 W/m² | - |
| 1777436126 | 24.44° C | 27% | 1014.1 hPa | 0 mm | - | 0 W/m² | - |
* Rain latest hour (hover to see other rain measurements)
** Current wind speed in m/s (hover to see current wind gust speed)